Terminal Aerodrome Forecast
Issued by NWS San Angelo, TX

Home | Current Version | Previous Version | Text Only | Print | Product List | Glossary On
Versions: 1 2 3 4 5 6 7 8 9 10 11 12 13 14
000
FTUS44 KSJT 232300
TAFSJT
TAF
KSJT 232330Z 2400/2424 11008KT P6SM VCTS BKN060CB BKN090
      TEMPO 2400/2401 VRB15G25KT P6SM TS BKN060CB
     FM240100 13006KT P6SM SCT060 BKN100
     FM241200 15006KT P6SM SCT025 BKN250=

USA.gov is the U.S. government's official web portal to all federal, state and local government web resources and services.